METAR Data
IDs: Format: Raw Decoded Include TAF

Data at: 1531 UTC 27 Nov 2021

LTBA 271520Z 22005KT CAVOK 17/11 Q1009 NOSIG RMK RWY23 21006KT